sensor_id;sensor_type;location;lat;lon;timestamp;P1;durP1;ratioP1;P2;durP2;ratioP2
7377;SDS011;3730;50.856;12.776;2023-05-07T00:01:02;16.20;;;11.87;;
7377;SDS011;3730;50.856;12.776;2023-05-07T00:03:28;14.77;;;11.40;;
7377;SDS011;3730;50.856;12.776;2023-05-07T00:05:54;15.73;;;11.40;;
7377;SDS011;3730;50.856;12.776;2023-05-07T00:08:19;12.03;;;9.97;;
7377;SDS011;3730;50.856;12.776;2023-05-07T00:10:45;13.03;;;9.90;;
7377;SDS011;3730;50.856;12.776;2023-05-07T00:13:11;12.23;;;10.20;;
7377;SDS011;3730;50.856;12.776;2023-05-07T00:15:37;13.17;;;10.47;;
7377;SDS011;3730;50.856;12.776;2023-05-07T00:18:03;12.83;;;9.80;;
7377;SDS011;3730;50.856;12.776;2023-05-07T00:20:28;11.37;;;9.47;;
7377;SDS011;3730;50.856;12.776;2023-05-07T00:22:54;11.87;;;9.23;;
7377;SDS011;3730;50.856;12.776;2023-05-07T00:25:20;11.43;;;9.77;;
7377;SDS011;3730;50.856;12.776;2023-05-07T00:27:46;12.47;;;9.47;;
7377;SDS011;3730;50.856;12.776;2023-05-07T00:30:11;10.23;;;8.60;;
7377;SDS011;3730;50.856;12.776;2023-05-07T00:32:38;10.40;;;8.70;;
7377;SDS011;3730;50.856;12.776;2023-05-07T00:35:04;11.47;;;9.33;;
7377;SDS011;3730;50.856;12.776;2023-05-07T00:37:30;12.03;;;10.50;;
7377;SDS011;3730;50.856;12.776;2023-05-07T00:39:56;10.70;;;9.50;;
7377;SDS011;3730;50.856;12.776;2023-05-07T00:42:22;12.07;;;9.87;;
7377;SDS011;3730;50.856;12.776;2023-05-07T00:44:49;10.30;;;8.97;;
7377;SDS011;3730;50.856;12.776;2023-05-07T00:47:15;12.17;;;9.67;;
7377;SDS011;3730;50.856;12.776;2023-05-07T00:49:42;12.60;;;10.90;;
7377;SDS011;3730;50.856;12.776;2023-05-07T00:52:09;12.77;;;10.33;;
7377;SDS011;3730;50.856;12.776;2023-05-07T00:54:40;12.03;;;9.97;;
7377;SDS011;3730;50.856;12.776;2023-05-07T00:57:06;13.93;;;10.97;;
7377;SDS011;3730;50.856;12.776;2023-05-07T00:59:32;16.13;;;12.03;;
7377;SDS011;3730;50.856;12.776;2023-05-07T01:01:58;15.83;;;11.07;;
7377;SDS011;3730;50.856;12.776;2023-05-07T01:04:24;14.73;;;11.77;;
7377;SDS011;3730;50.856;12.776;2023-05-07T01:06:50;14.17;;;12.03;;
7377;SDS011;3730;50.856;12.776;2023-05-07T01:09:18;14.80;;;12.30;;
7377;SDS011;3730;50.856;12.776;2023-05-07T01:11:45;14.50;;;11.40;;
7377;SDS011;3730;50.856;12.776;2023-05-07T01:14:12;14.90;;;11.77;;
7377;SDS011;3730;50.856;12.776;2023-05-07T01:16:37;14.37;;;12.33;;
7377;SDS011;3730;50.856;12.776;2023-05-07T01:19:05;14.57;;;12.03;;
7377;SDS011;3730;50.856;12.776;2023-05-07T01:21:33;17.57;;;12.87;;
7377;SDS011;3730;50.856;12.776;2023-05-07T01:24:02;14.53;;;12.27;;
7377;SDS011;3730;50.856;12.776;2023-05-07T01:26:27;16.60;;;12.07;;
7377;SDS011;3730;50.856;12.776;2023-05-07T01:28:53;16.80;;;12.30;;
7377;SDS011;3730;50.856;12.776;2023-05-07T01:31:19;17.13;;;13.27;;
7377;SDS011;3730;50.856;12.776;2023-05-07T01:33:45;17.07;;;12.73;;
7377;SDS011;3730;50.856;12.776;2023-05-07T01:36:13;18.60;;;13.33;;
7377;SDS011;3730;50.856;12.776;2023-05-07T01:38:40;18.70;;;13.13;;
7377;SDS011;3730;50.856;12.776;2023-05-07T01:41:07;17.73;;;13.17;;
7377;SDS011;3730;50.856;12.776;2023-05-07T01:43:33;15.67;;;13.07;;
7377;SDS011;3730;50.856;12.776;2023-05-07T01:45:58;17.30;;;14.30;;
7377;SDS011;3730;50.856;12.776;2023-05-07T01:48:26;20.47;;;15.13;;
7377;SDS011;3730;50.856;12.776;2023-05-07T01:50:52;18.60;;;14.93;;
7377;SDS011;3730;50.856;12.776;2023-05-07T01:53:18;20.63;;;16.47;;
7377;SDS011;3730;50.856;12.776;2023-05-07T01:55:44;20.07;;;16.40;;
7377;SDS011;3730;50.856;12.776;2023-05-07T01:58:10;21.33;;;15.13;;
7377;SDS011;3730;50.856;12.776;2023-05-07T02:00:36;21.00;;;16.70;;
7377;SDS011;3730;50.856;12.776;2023-05-07T02:03:01;21.27;;;15.87;;
7377;SDS011;3730;50.856;12.776;2023-05-07T02:05:27;22.90;;;16.83;;
7377;SDS011;3730;50.856;12.776;2023-05-07T02:07:52;22.20;;;16.73;;
7377;SDS011;3730;50.856;12.776;2023-05-07T02:10:18;18.60;;;15.53;;
7377;SDS011;3730;50.856;12.776;2023-05-07T02:12:44;22.00;;;16.97;;
7377;SDS011;3730;50.856;12.776;2023-05-07T02:15:10;20.13;;;16.83;;
7377;SDS011;3730;50.856;12.776;2023-05-07T02:17:38;23.93;;;17.93;;
7377;SDS011;3730;50.856;12.776;2023-05-07T02:20:22;21.83;;;17.83;;
7377;SDS011;3730;50.856;12.776;2023-05-07T02:22:48;23.27;;;17.27;;
7377;SDS011;3730;50.856;12.776;2023-05-07T02:25:13;27.13;;;19.20;;
7377;SDS011;3730;50.856;12.776;2023-05-07T02:27:39;26.20;;;18.07;;
7377;SDS011;3730;50.856;12.776;2023-05-07T02:30:05;26.07;;;19.03;;
7377;SDS011;3730;50.856;12.776;2023-05-07T02:32:31;24.73;;;18.70;;
7377;SDS011;3730;50.856;12.776;2023-05-07T02:34:56;23.53;;;18.17;;
7377;SDS011;3730;50.856;12.776;2023-05-07T02:37:22;23.13;;;17.97;;
7377;SDS011;3730;50.856;12.776;2023-05-07T02:39:47;27.50;;;20.27;;
7377;SDS011;3730;50.856;12.776;2023-05-07T02:42:13;26.90;;;19.67;;
7377;SDS011;3730;50.856;12.776;2023-05-07T02:44:39;27.80;;;19.37;;
7377;SDS011;3730;50.856;12.776;2023-05-07T02:47:04;23.33;;;18.40;;
7377;SDS011;3730;50.856;12.776;2023-05-07T02:49:33;26.90;;;19.60;;
7377;SDS011;3730;50.856;12.776;2023-05-07T02:51:58;24.03;;;17.67;;
7377;SDS011;3730;50.856;12.776;2023-05-07T02:54:24;23.23;;;18.27;;
7377;SDS011;3730;50.856;12.776;2023-05-07T02:56:50;23.50;;;18.10;;
7377;SDS011;3730;50.856;12.776;2023-05-07T02:59:18;26.30;;;19.13;;
7377;SDS011;3730;50.856;12.776;2023-05-07T03:01:44;23.10;;;18.17;;
7377;SDS011;3730;50.856;12.776;2023-05-07T03:04:10;27.00;;;19.40;;
7377;SDS011;3730;50.856;12.776;2023-05-07T03:06:36;28.07;;;19.57;;
7377;SDS011;3730;50.856;12.776;2023-05-07T03:09:02;24.77;;;18.87;;
7377;SDS011;3730;50.856;12.776;2023-05-07T03:11:28;24.57;;;18.57;;
7377;SDS011;3730;50.856;12.776;2023-05-07T03:13:54;27.63;;;19.63;;
7377;SDS011;3730;50.856;12.776;2023-05-07T03:16:19;24.40;;;18.60;;
7377;SDS011;3730;50.856;12.776;2023-05-07T03:18:45;27.73;;;19.20;;
7377;SDS011;3730;50.856;12.776;2023-05-07T03:21:11;27.77;;;19.70;;
7377;SDS011;3730;50.856;12.776;2023-05-07T03:23:37;23.67;;;18.60;;
7377;SDS011;3730;50.856;12.776;2023-05-07T03:26:02;26.13;;;19.77;;
7377;SDS011;3730;50.856;12.776;2023-05-07T03:28:28;26.17;;;19.00;;
7377;SDS011;3730;50.856;12.776;2023-05-07T03:30:53;26.30;;;19.63;;
7377;SDS011;3730;50.856;12.776;2023-05-07T03:33:19;24.73;;;17.80;;
7377;SDS011;3730;50.856;12.776;2023-05-07T03:35:45;28.30;;;20.13;;
7377;SDS011;3730;50.856;12.776;2023-05-07T03:38:10;26.07;;;19.10;;
7377;SDS011;3730;50.856;12.776;2023-05-07T03:40:36;25.10;;;18.70;;
7377;SDS011;3730;50.856;12.776;2023-05-07T03:43:02;25.60;;;18.77;;
7377;SDS011;3730;50.856;12.776;2023-05-07T03:45:27;27.50;;;19.10;;
7377;SDS011;3730;50.856;12.776;2023-05-07T03:47:53;25.37;;;18.37;;
7377;SDS011;3730;50.856;12.776;2023-05-07T03:50:19;24.40;;;18.67;;
7377;SDS011;3730;50.856;12.776;2023-05-07T03:52:44;26.40;;;18.13;;
7377;SDS011;3730;50.856;12.776;2023-05-07T03:55:10;25.47;;;19.27;;
7377;SDS011;3730;50.856;12.776;2023-05-07T03:57:36;27.07;;;19.30;;
7377;SDS011;3730;50.856;12.776;2023-05-07T04:00:02;28.47;;;19.87;;
7377;SDS011;3730;50.856;12.776;2023-05-07T04:02:29;26.57;;;19.40;;
7377;SDS011;3730;50.856;12.776;2023-05-07T04:04:55;25.93;;;19.07;;
7377;SDS011;3730;50.856;12.776;2023-05-07T04:07:21;25.13;;;18.20;;
7377;SDS011;3730;50.856;12.776;2023-05-07T04:09:46;25.50;;;18.60;;
7377;SDS011;3730;50.856;12.776;2023-05-07T04:12:12;23.80;;;18.40;;
7377;SDS011;3730;50.856;12.776;2023-05-07T04:14:37;22.57;;;17.20;;
7377;SDS011;3730;50.856;12.776;2023-05-07T04:17:03;25.37;;;17.13;;
7377;SDS011;3730;50.856;12.776;2023-05-07T04:19:29;23.83;;;16.93;;
7377;SDS011;3730;50.856;12.776;2023-05-07T04:21:55;23.27;;;16.77;;
7377;SDS011;3730;50.856;12.776;2023-05-07T04:24:20;21.83;;;17.07;;
7377;SDS011;3730;50.856;12.776;2023-05-07T04:26:46;21.13;;;15.83;;
7377;SDS011;3730;50.856;12.776;2023-05-07T04:29:12;23.17;;;16.53;;
7377;SDS011;3730;50.856;12.776;2023-05-07T04:31:37;22.30;;;15.83;;
7377;SDS011;3730;50.856;12.776;2023-05-07T04:34:03;22.03;;;16.67;;
7377;SDS011;3730;50.856;12.776;2023-05-07T04:36:29;20.43;;;16.87;;
7377;SDS011;3730;50.856;12.776;2023-05-07T04:38:55;20.03;;;15.67;;
7377;SDS011;3730;50.856;12.776;2023-05-07T04:41:21;19.13;;;15.63;;
7377;SDS011;3730;50.856;12.776;2023-05-07T04:43:46;19.10;;;15.00;;
7377;SDS011;3730;50.856;12.776;2023-05-07T04:46:12;17.10;;;13.40;;
7377;SDS011;3730;50.856;12.776;2023-05-07T04:48:38;20.13;;;15.60;;
7377;SDS011;3730;50.856;12.776;2023-05-07T04:51:03;17.03;;;14.67;;
7377;SDS011;3730;50.856;12.776;2023-05-07T04:53:29;18.07;;;15.03;;
7377;SDS011;3730;50.856;12.776;2023-05-07T04:55:55;19.87;;;15.40;;
7377;SDS011;3730;50.856;12.776;2023-05-07T04:58:22;20.40;;;15.50;;
7377;SDS011;3730;50.856;12.776;2023-05-07T05:00:47;17.60;;;14.70;;
7377;SDS011;3730;50.856;12.776;2023-05-07T05:03:13;19.67;;;15.37;;
7377;SDS011;3730;50.856;12.776;2023-05-07T05:05:39;18.07;;;15.27;;
7377;SDS011;3730;50.856;12.776;2023-05-07T05:08:04;22.77;;;16.73;;
7377;SDS011;3730;50.856;12.776;2023-05-07T05:10:30;20.43;;;16.30;;
7377;SDS011;3730;50.856;12.776;2023-05-07T05:12:56;20.40;;;16.27;;
7377;SDS011;3730;50.856;12.776;2023-05-07T05:15:21;22.40;;;16.23;;
7377;SDS011;3730;50.856;12.776;2023-05-07T05:17:47;24.37;;;17.93;;
7377;SDS011;3730;50.856;12.776;2023-05-07T05:20:13;22.37;;;17.77;;
7377;SDS011;3730;50.856;12.776;2023-05-07T05:22:39;25.60;;;19.37;;
7377;SDS011;3730;50.856;12.776;2023-05-07T05:25:05;26.20;;;19.77;;
7377;SDS011;3730;50.856;12.776;2023-05-07T05:27:31;27.47;;;20.57;;
7377;SDS011;3730;50.856;12.776;2023-05-07T05:29:56;28.03;;;21.53;;
7377;SDS011;3730;50.856;12.776;2023-05-07T05:32:22;29.17;;;22.10;;
7377;SDS011;3730;50.856;12.776;2023-05-07T05:34:48;31.30;;;21.97;;
7377;SDS011;3730;50.856;12.776;2023-05-07T05:37:13;25.60;;;20.67;;
7377;SDS011;3730;50.856;12.776;2023-05-07T05:39:39;29.93;;;22.90;;
7377;SDS011;3730;50.856;12.776;2023-05-07T05:42:04;31.83;;;24.27;;
7377;SDS011;3730;50.856;12.776;2023-05-07T05:44:30;28.50;;;22.20;;
7377;SDS011;3730;50.856;12.776;2023-05-07T05:46:56;30.90;;;23.00;;
7377;SDS011;3730;50.856;12.776;2023-05-07T05:49:24;28.30;;;22.13;;
7377;SDS011;3730;50.856;12.776;2023-05-07T05:51:49;33.70;;;22.60;;
7377;SDS011;3730;50.856;12.776;2023-05-07T05:54:15;25.53;;;20.37;;
7377;SDS011;3730;50.856;12.776;2023-05-07T05:56:41;26.47;;;20.40;;
7377;SDS011;3730;50.856;12.776;2023-05-07T05:59:07;25.63;;;20.87;;
7377;SDS011;3730;50.856;12.776;2023-05-07T06:01:33;26.57;;;20.53;;
7377;SDS011;3730;50.856;12.776;2023-05-07T06:03:58;27.27;;;21.13;;
7377;SDS011;3730;50.856;12.776;2023-05-07T06:06:24;26.23;;;21.30;;
7377;SDS011;3730;50.856;12.776;2023-05-07T06:08:53;27.10;;;21.33;;
7377;SDS011;3730;50.856;12.776;2023-05-07T06:11:19;27.63;;;19.33;;
7377;SDS011;3730;50.856;12.776;2023-05-07T06:13:45;24.33;;;18.37;;
7377;SDS011;3730;50.856;12.776;2023-05-07T06:16:13;25.73;;;18.63;;
7377;SDS011;3730;50.856;12.776;2023-05-07T06:18:40;22.87;;;17.17;;
7377;SDS011;3730;50.856;12.776;2023-05-07T06:21:05;23.63;;;18.47;;
7377;SDS011;3730;50.856;12.776;2023-05-07T06:23:31;23.00;;;18.83;;
7377;SDS011;3730;50.856;12.776;2023-05-07T06:25:57;24.43;;;19.40;;
7377;SDS011;3730;50.856;12.776;2023-05-07T06:28:22;23.60;;;19.17;;
7377;SDS011;3730;50.856;12.776;2023-05-07T06:30:48;22.33;;;18.40;;
7377;SDS011;3730;50.856;12.776;2023-05-07T06:33:15;25.43;;;18.87;;
7377;SDS011;3730;50.856;12.776;2023-05-07T06:35:41;25.70;;;18.57;;
7377;SDS011;3730;50.856;12.776;2023-05-07T06:38:06;22.33;;;18.13;;
7377;SDS011;3730;50.856;12.776;2023-05-07T06:40:32;23.63;;;17.87;;
7377;SDS011;3730;50.856;12.776;2023-05-07T06:43:00;23.67;;;17.67;;
7377;SDS011;3730;50.856;12.776;2023-05-07T06:45:26;23.43;;;17.63;;
7377;SDS011;3730;50.856;12.776;2023-05-07T06:47:52;23.40;;;17.93;;
7377;SDS011;3730;50.856;12.776;2023-05-07T06:50:17;19.27;;;17.10;;
7377;SDS011;3730;50.856;12.776;2023-05-07T06:52:43;21.47;;;16.63;;
7377;SDS011;3730;50.856;12.776;2023-05-07T06:55:08;22.60;;;17.60;;
7377;SDS011;3730;50.856;12.776;2023-05-07T06:57:34;18.67;;;16.60;;
7377;SDS011;3730;50.856;12.776;2023-05-07T07:00:00;20.07;;;16.30;;
7377;SDS011;3730;50.856;12.776;2023-05-07T07:02:25;19.43;;;15.60;;
7377;SDS011;3730;50.856;12.776;2023-05-07T07:04:51;20.93;;;17.07;;
7377;SDS011;3730;50.856;12.776;2023-05-07T07:07:20;22.27;;;16.60;;
7377;SDS011;3730;50.856;12.776;2023-05-07T07:09:45;21.93;;;16.63;;
7377;SDS011;3730;50.856;12.776;2023-05-07T07:12:11;19.87;;;15.63;;
7377;SDS011;3730;50.856;12.776;2023-05-07T07:14:36;22.93;;;17.57;;
7377;SDS011;3730;50.856;12.776;2023-05-07T07:17:02;20.77;;;16.17;;
7377;SDS011;3730;50.856;12.776;2023-05-07T07:19:27;22.37;;;17.10;;
7377;SDS011;3730;50.856;12.776;2023-05-07T07:21:53;21.43;;;17.43;;
7377;SDS011;3730;50.856;12.776;2023-05-07T07:24:19;23.30;;;17.47;;
7377;SDS011;3730;50.856;12.776;2023-05-07T07:26:47;20.60;;;16.07;;
7377;SDS011;3730;50.856;12.776;2023-05-07T07:29:13;20.17;;;16.67;;
7377;SDS011;3730;50.856;12.776;2023-05-07T07:31:38;20.83;;;15.50;;
7377;SDS011;3730;50.856;12.776;2023-05-07T07:34:04;18.17;;;15.57;;
7377;SDS011;3730;50.856;12.776;2023-05-07T07:36:29;18.67;;;15.67;;
7377;SDS011;3730;50.856;12.776;2023-05-07T07:38:55;21.60;;;16.07;;
7377;SDS011;3730;50.856;12.776;2023-05-07T07:41:21;19.47;;;16.20;;
7377;SDS011;3730;50.856;12.776;2023-05-07T07:43:46;19.00;;;16.17;;
7377;SDS011;3730;50.856;12.776;2023-05-07T07:46:14;15.80;;;13.90;;
7377;SDS011;3730;50.856;12.776;2023-05-07T07:48:40;31.73;;;28.40;;
7377;SDS011;3730;50.856;12.776;2023-05-07T07:51:06;19.23;;;15.67;;
7377;SDS011;3730;50.856;12.776;2023-05-07T07:53:32;20.50;;;14.90;;
7377;SDS011;3730;50.856;12.776;2023-05-07T07:55:57;18.37;;;14.50;;
7377;SDS011;3730;50.856;12.776;2023-05-07T07:58:23;16.57;;;14.17;;
7377;SDS011;3730;50.856;12.776;2023-05-07T08:00:49;19.37;;;13.63;;
7377;SDS011;3730;50.856;12.776;2023-05-07T08:03:16;17.30;;;13.27;;
7377;SDS011;3730;50.856;12.776;2023-05-07T08:05:41;16.10;;;12.97;;
7377;SDS011;3730;50.856;12.776;2023-05-07T08:08:07;17.27;;;12.70;;
7377;SDS011;3730;50.856;12.776;2023-05-07T08:10:33;14.33;;;12.43;;
7377;SDS011;3730;50.856;12.776;2023-05-07T08:13:03;15.03;;;12.33;;
7377;SDS011;3730;50.856;12.776;2023-05-07T08:15:29;15.67;;;13.03;;
7377;SDS011;3730;50.856;12.776;2023-05-07T08:17:55;16.23;;;12.07;;
7377;SDS011;3730;50.856;12.776;2023-05-07T08:20:22;14.03;;;12.27;;
7377;SDS011;3730;50.856;12.776;2023-05-07T08:22:48;13.63;;;12.23;;
7377;SDS011;3730;50.856;12.776;2023-05-07T08:25:14;13.93;;;11.77;;
7377;SDS011;3730;50.856;12.776;2023-05-07T08:27:39;13.00;;;11.53;;
7377;SDS011;3730;50.856;12.776;2023-05-07T08:30:05;14.10;;;11.30;;
7377;SDS011;3730;50.856;12.776;2023-05-07T08:32:31;12.00;;;10.77;;
7377;SDS011;3730;50.856;12.776;2023-05-07T08:34:57;13.23;;;11.63;;
7377;SDS011;3730;50.856;12.776;2023-05-07T08:37:23;12.10;;;9.73;;
7377;SDS011;3730;50.856;12.776;2023-05-07T08:39:48;10.97;;;9.87;;
7377;SDS011;3730;50.856;12.776;2023-05-07T08:42:15;10.03;;;8.93;;
7377;SDS011;3730;50.856;12.776;2023-05-07T08:44:45;10.73;;;9.40;;
7377;SDS011;3730;50.856;12.776;2023-05-07T08:47:19;9.60;;;8.57;;
7377;SDS011;3730;50.856;12.776;2023-05-07T08:49:47;9.73;;;8.50;;
7377;SDS011;3730;50.856;12.776;2023-05-07T08:52:14;10.37;;;7.70;;
7377;SDS011;3730;50.856;12.776;2023-05-07T08:54:40;8.20;;;7.33;;
7377;SDS011;3730;50.856;12.776;2023-05-07T08:57:06;8.73;;;7.80;;
7377;SDS011;3730;50.856;12.776;2023-05-07T08:59:31;8.30;;;7.50;;
7377;SDS011;3730;50.856;12.776;2023-05-07T09:01:57;10.10;;;7.90;;
7377;SDS011;3730;50.856;12.776;2023-05-07T09:04:23;10.87;;;7.77;;
7377;SDS011;3730;50.856;12.776;2023-05-07T09:06:48;7.93;;;7.03;;
7377;SDS011;3730;50.856;12.776;2023-05-07T09:09:16;7.10;;;6.40;;
7377;SDS011;3730;50.856;12.776;2023-05-07T09:11:43;7.40;;;6.70;;
7377;SDS011;3730;50.856;12.776;2023-05-07T09:14:09;8.83;;;7.17;;
7377;SDS011;3730;50.856;12.776;2023-05-07T09:16:35;7.90;;;7.10;;
7377;SDS011;3730;50.856;12.776;2023-05-07T09:19:00;10.47;;;9.30;;
7377;SDS011;3730;50.856;12.776;2023-05-07T09:21:26;10.67;;;7.97;;
7377;SDS011;3730;50.856;12.776;2023-05-07T09:23:52;9.07;;;8.17;;
7377;SDS011;3730;50.856;12.776;2023-05-07T09:26:23;9.80;;;8.80;;
7377;SDS011;3730;50.856;12.776;2023-05-07T09:28:49;9.57;;;8.50;;
7377;SDS011;3730;50.856;12.776;2023-05-07T09:31:15;12.23;;;9.57;;
7377;SDS011;3730;50.856;12.776;2023-05-07T09:33:41;11.27;;;9.97;;
7377;SDS011;3730;50.856;12.776;2023-05-07T09:36:07;10.50;;;9.40;;
7377;SDS011;3730;50.856;12.776;2023-05-07T09:38:35;11.43;;;10.07;;
7377;SDS011;3730;50.856;12.776;2023-05-07T09:41:05;10.67;;;9.57;;
7377;SDS011;3730;50.856;12.776;2023-05-07T09:43:36;12.27;;;9.90;;
7377;SDS011;3730;50.856;12.776;2023-05-07T09:46:12;11.20;;;9.87;;
7377;SDS011;3730;50.856;12.776;2023-05-07T09:48:39;11.03;;;8.93;;
7377;SDS011;3730;50.856;12.776;2023-05-07T09:51:15;9.80;;;8.57;;
7377;SDS011;3730;50.856;12.776;2023-05-07T09:53:48;10.27;;;8.50;;
7377;SDS011;3730;50.856;12.776;2023-05-07T09:56:17;8.47;;;7.67;;
7377;SDS011;3730;50.856;12.776;2023-05-07T09:58:43;8.23;;;7.43;;
7377;SDS011;3730;50.856;12.776;2023-05-07T10:01:12;9.27;;;7.87;;
7377;SDS011;3730;50.856;12.776;2023-05-07T10:03:39;7.93;;;7.13;;
7377;SDS011;3730;50.856;12.776;2023-05-07T10:06:06;7.47;;;6.67;;
7377;SDS011;3730;50.856;12.776;2023-05-07T10:08:33;8.87;;;7.30;;
7377;SDS011;3730;50.856;12.776;2023-05-07T10:11:00;7.50;;;6.30;;
7377;SDS011;3730;50.856;12.776;2023-05-07T10:13:27;8.60;;;6.57;;
7377;SDS011;3730;50.856;12.776;2023-05-07T10:15:55;7.63;;;6.30;;
7377;SDS011;3730;50.856;12.776;2023-05-07T10:18:21;8.67;;;6.07;;
7377;SDS011;3730;50.856;12.776;2023-05-07T10:20:54;6.50;;;5.90;;
7377;SDS011;3730;50.856;12.776;2023-05-07T10:23:23;6.97;;;6.17;;
7377;SDS011;3730;50.856;12.776;2023-05-07T10:25:49;6.23;;;5.30;;
7377;SDS011;3730;50.856;12.776;2023-05-07T10:28:15;5.80;;;5.30;;
7377;SDS011;3730;50.856;12.776;2023-05-07T10:31:04;5.30;;;4.90;;
7377;SDS011;3730;50.856;12.776;2023-05-07T10:34:09;6.23;;;5.63;;
7377;SDS011;3730;50.856;12.776;2023-05-07T10:36:38;5.60;;;5.10;;
7377;SDS011;3730;50.856;12.776;2023-05-07T10:39:04;5.27;;;4.77;;
7377;SDS011;3730;50.856;12.776;2023-05-07T10:41:31;5.33;;;4.87;;
7377;SDS011;3730;50.856;12.776;2023-05-07T10:43:56;5.27;;;4.83;;
7377;SDS011;3730;50.856;12.776;2023-05-07T10:46:26;7.00;;;4.63;;
7377;SDS011;3730;50.856;12.776;2023-05-07T10:51:31;4.80;;;4.40;;
7377;SDS011;3730;50.856;12.776;2023-05-07T10:56:36;5.97;;;5.37;;
7377;SDS011;3730;50.856;12.776;2023-05-07T11:02:00;6.23;;;5.63;;
7377;SDS011;3730;50.856;12.776;2023-05-07T11:04:31;7.03;;;5.93;;
7377;SDS011;3730;50.856;12.776;2023-05-07T11:07:44;6.73;;;5.77;;
7377;SDS011;3730;50.856;12.776;2023-05-07T11:15:08;6.63;;;5.73;;
7377;SDS011;3730;50.856;12.776;2023-05-07T11:17:35;6.87;;;6.23;;
7377;SDS011;3730;50.856;12.776;2023-05-07T11:20:17;7.27;;;6.57;;
7377;SDS011;3730;50.856;12.776;2023-05-07T11:22:43;7.17;;;6.47;;
7377;SDS011;3730;50.856;12.776;2023-05-07T11:25:09;7.10;;;6.40;;
7377;SDS011;3730;50.856;12.776;2023-05-07T11:27:35;7.10;;;6.40;;
7377;SDS011;3730;50.856;12.776;2023-05-07T11:30:02;6.10;;;5.50;;
7377;SDS011;3730;50.856;12.776;2023-05-07T11:32:28;7.10;;;6.40;;
7377;SDS011;3730;50.856;12.776;2023-05-07T11:34:55;6.73;;;6.13;;
7377;SDS011;3730;50.856;12.776;2023-05-07T11:37:22;6.30;;;5.70;;
7377;SDS011;3730;50.856;12.776;2023-05-07T11:39:49;6.03;;;5.53;;
7377;SDS011;3730;50.856;12.776;2023-05-07T11:42:27;5.93;;;5.43;;
7377;SDS011;3730;50.856;12.776;2023-05-07T11:44:53;6.10;;;5.50;;
7377;SDS011;3730;50.856;12.776;2023-05-07T11:47:19;5.40;;;4.90;;
7377;SDS011;3730;50.856;12.776;2023-05-07T11:49:49;5.53;;;5.10;;
7377;SDS011;3730;50.856;12.776;2023-05-07T11:52:19;5.67;;;5.17;;
7377;SDS011;3730;50.856;12.776;2023-05-07T11:54:51;5.97;;;5.47;;
7377;SDS011;3730;50.856;12.776;2023-05-07T11:57:17;5.93;;;5.33;;
7377;SDS011;3730;50.856;12.776;2023-05-07T11:59:44;5.97;;;5.47;;
7377;SDS011;3730;50.856;12.776;2023-05-07T12:02:10;5.87;;;5.37;;
7377;SDS011;3730;50.856;12.776;2023-05-07T12:04:37;5.67;;;4.90;;
7377;SDS011;3730;50.856;12.776;2023-05-07T12:07:03;5.63;;;5.23;;
7377;SDS011;3730;50.856;12.776;2023-05-07T12:09:29;5.57;;;5.17;;
7377;SDS011;3730;50.856;12.776;2023-05-07T12:11:57;5.47;;;5.03;;
7377;SDS011;3730;50.856;12.776;2023-05-07T12:14:28;5.77;;;5.27;;
7377;SDS011;3730;50.856;12.776;2023-05-07T12:16:54;5.57;;;5.07;;
7377;SDS011;3730;50.856;12.776;2023-05-07T12:19:20;5.77;;;5.27;;
7377;SDS011;3730;50.856;12.776;2023-05-07T12:21:47;6.23;;;5.73;;
7377;SDS011;3730;50.856;12.776;2023-05-07T12:24:14;5.27;;;4.87;;
7377;SDS011;3730;50.856;12.776;2023-05-07T12:26:40;5.87;;;5.37;;
7377;SDS011;3730;50.856;12.776;2023-05-07T12:29:06;4.97;;;4.60;;
7377;SDS011;3730;50.856;12.776;2023-05-07T12:31:33;5.20;;;4.77;;
7377;SDS011;3730;50.856;12.776;2023-05-07T12:33:58;5.40;;;4.73;;
7377;SDS011;3730;50.856;12.776;2023-05-07T12:36:24;5.57;;;5.07;;
7377;SDS011;3730;50.856;12.776;2023-05-07T12:38:50;5.23;;;4.70;;
7377;SDS011;3730;50.856;12.776;2023-05-07T12:41:16;5.47;;;5.00;;
7377;SDS011;3730;50.856;12.776;2023-05-07T12:43:46;5.63;;;5.13;;
7377;SDS011;3730;50.856;12.776;2023-05-07T12:46:12;5.53;;;4.90;;
7377;SDS011;3730;50.856;12.776;2023-05-07T12:48:44;5.57;;;5.07;;
7377;SDS011;3730;50.856;12.776;2023-05-07T12:51:11;5.60;;;5.10;;
7377;SDS011;3730;50.856;12.776;2023-05-07T12:53:41;4.60;;;4.20;;
7377;SDS011;3730;50.856;12.776;2023-05-07T12:56:07;5.47;;;4.97;;
7377;SDS011;3730;50.856;12.776;2023-05-07T12:58:34;5.80;;;5.30;;
7377;SDS011;3730;50.856;12.776;2023-05-07T13:01:04;5.73;;;4.70;;
7377;SDS011;3730;50.856;12.776;2023-05-07T13:03:31;5.67;;;5.17;;
7377;SDS011;3730;50.856;12.776;2023-05-07T13:06:02;6.40;;;4.83;;
7377;SDS011;3730;50.856;12.776;2023-05-07T13:10:54;5.97;;;5.43;;
7377;SDS011;3730;50.856;12.776;2023-05-07T13:13:20;5.27;;;4.87;;
7377;SDS011;3730;50.856;12.776;2023-05-07T13:15:46;6.90;;;5.23;;
7377;SDS011;3730;50.856;12.776;2023-05-07T13:18:12;6.10;;;5.50;;
7377;SDS011;3730;50.856;12.776;2023-05-07T13:20:38;5.80;;;5.30;;
7377;SDS011;3730;50.856;12.776;2023-05-07T13:23:03;7.13;;;5.90;;
7377;SDS011;3730;50.856;12.776;2023-05-07T13:25:29;6.17;;;5.67;;
7377;SDS011;3730;50.856;12.776;2023-05-07T13:27:58;5.63;;;5.13;;
7377;SDS011;3730;50.856;12.776;2023-05-07T13:30:24;6.73;;;6.13;;
7377;SDS011;3730;50.856;12.776;2023-05-07T13:32:50;6.30;;;5.70;;
7377;SDS011;3730;50.856;12.776;2023-05-07T13:35:17;8.17;;;5.33;;
7377;SDS011;3730;50.856;12.776;2023-05-07T13:37:42;6.23;;;5.43;;
7377;SDS011;3730;50.856;12.776;2023-05-07T13:40:08;6.17;;;5.57;;
7377;SDS011;3730;50.856;12.776;2023-05-07T13:42:34;6.13;;;5.63;;
7377;SDS011;3730;50.856;12.776;2023-05-07T13:45:00;5.97;;;5.47;;
7377;SDS011;3730;50.856;12.776;2023-05-07T13:47:29;6.00;;;5.50;;
7377;SDS011;3730;50.856;12.776;2023-05-07T13:49:55;7.00;;;5.90;;
7377;SDS011;3730;50.856;12.776;2023-05-07T13:52:20;7.30;;;5.73;;
7377;SDS011;3730;50.856;12.776;2023-05-07T13:54:46;8.43;;;5.90;;
7377;SDS011;3730;50.856;12.776;2023-05-07T13:57:11;6.27;;;5.67;;
7377;SDS011;3730;50.856;12.776;2023-05-07T13:59:37;5.77;;;5.27;;
7377;SDS011;3730;50.856;12.776;2023-05-07T14:02:03;6.00;;;5.50;;
7377;SDS011;3730;50.856;12.776;2023-05-07T14:04:30;5.20;;;4.80;;
7377;SDS011;3730;50.856;12.776;2023-05-07T14:06:55;6.10;;;5.50;;
7377;SDS011;3730;50.856;12.776;2023-05-07T14:09:21;5.93;;;5.43;;
7377;SDS011;3730;50.856;12.776;2023-05-07T14:11:46;5.80;;;5.30;;
7377;SDS011;3730;50.856;12.776;2023-05-07T14:14:16;5.20;;;4.80;;
7377;SDS011;3730;50.856;12.776;2023-05-07T14:16:42;5.67;;;5.10;;
7377;SDS011;3730;50.856;12.776;2023-05-07T14:19:08;5.23;;;4.83;;
7377;SDS011;3730;50.856;12.776;2023-05-07T14:21:33;5.43;;;4.93;;
7377;SDS011;3730;50.856;12.776;2023-05-07T14:23:59;5.30;;;4.80;;
7377;SDS011;3730;50.856;12.776;2023-05-07T14:26:25;5.37;;;4.97;;
7377;SDS011;3730;50.856;12.776;2023-05-07T14:28:52;5.83;;;5.33;;
7377;SDS011;3730;50.856;12.776;2023-05-07T14:31:20;5.77;;;5.33;;
7377;SDS011;3730;50.856;12.776;2023-05-07T14:33:46;5.90;;;5.37;;
7377;SDS011;3730;50.856;12.776;2023-05-07T14:36:11;5.60;;;5.10;;
7377;SDS011;3730;50.856;12.776;2023-05-07T14:38:37;6.13;;;5.53;;
7377;SDS011;3730;50.856;12.776;2023-05-07T14:41:03;6.17;;;5.40;;
7377;SDS011;3730;50.856;12.776;2023-05-07T14:43:28;5.87;;;5.33;;
7377;SDS011;3730;50.856;12.776;2023-05-07T14:45:54;5.37;;;4.97;;
7377;SDS011;3730;50.856;12.776;2023-05-07T14:48:20;5.63;;;5.13;;
7377;SDS011;3730;50.856;12.776;2023-05-07T14:50:48;5.23;;;4.83;;
7377;SDS011;3730;50.856;12.776;2023-05-07T14:53:14;5.53;;;5.03;;
7377;SDS011;3730;50.856;12.776;2023-05-07T14:55:40;7.13;;;4.90;;
7377;SDS011;3730;50.856;12.776;2023-05-07T14:58:05;5.50;;;5.00;;